Map

Track Data

SID SEASON NUMBER BASIN SUBBASIN NAME ISO_TIME NATURE LAT LON WMO_WIND WMO_PRES WMO_AGENCY TRACK_TYPE DIST2LAND LANDFALL IFLAG USA_AGENCY USA_ATCF_ID USA_LAT USA_LON USA_RECORD USA_STATUS USA_WIND USA_PRES USA_SSHS USA_R34_NE USA_R34_SE USA_R34_SW USA_R34_NW USA_R50_NE USA_R50_SE USA_R50_SW USA_R50_NW USA_R64_NE USA_R64_SE USA_R64_SW USA_R64_NW USA_POCI USA_ROCI USA_RMW USA_EYE TOKYO_LAT TOKYO_LON TOKYO_GRADE TOKYO_WIND TOKYO_PRES TOKYO_R50_DIR TOKYO_R50_LONG TOKYO_R50_SHORT TOKYO_R30_DIR TOKYO_R30_LONG TOKYO_R30_SHORT TOKYO_LAND CMA_LAT CMA_LON CMA_CAT CMA_WIND CMA_PRES HKO_LAT HKO_LON HKO_CAT HKO_WIND HKO_PRES NEWDELHI_LAT NEWDELHI_LON NEWDELHI_GRADE NEWDELHI_WIND NEWDELHI_PRES NEWDELHI_CI NEWDELHI_DP NEWDELHI_POCI REUNION_LAT REUNION_LON REUNION_TYPE REUNION_WIND REUNION_PRES REUNION_TNUM REUNION_CI REUNION_RMW REUNION_R34_NE REUNION_R34_SE REUNION_R34_SW REUNION_R34_NW REUNION_R50_NE REUNION_R50_SE REUNION_R50_SW REUNION_R50_NW REUNION_R64_NE REUNION_R64_SE REUNION_R64_SW REUNION_R64_NW BOM_LAT BOM_LON BOM_TYPE BOM_WIND BOM_PRES BOM_TNUM BOM_CI BOM_RMW BOM_R34_NE BOM_R34_SE BOM_R34_SW BOM_R34_NW BOM_R50_NE BOM_R50_SE BOM_R50_SW BOM_R50_NW BOM_R64_NE BOM_R64_SE BOM_R64_SW BOM_R64_NW BOM_ROCI BOM_POCI BOM_EYE BOM_POS_METHOD BOM_PRES_METHOD NADI_LAT NADI_LON NADI_CAT NADI_WIND NADI_PRES WELLINGTON_LAT WELLINGTON_LON WELLINGTON_WIND WELLINGTON_PRES DS824_LAT DS824_LON DS824_STAGE DS824_WIND DS824_PRES TD9636_LAT TD9636_LON TD9636_STAGE TD9636_WIND TD9636_PRES TD9635_LAT TD9635_LON TD9635_WIND TD9635_PRES TD9635_ROCI NEUMANN_LAT NEUMANN_LON NEUMANN_CLASS NEUMANN_WIND NEUMANN_PRES MLC_LAT MLC_LON MLC_CLASS MLC_WIND MLC_PRES USA_GUST BOM_GUST BOM_GUST_PER REUNION_GUST REUNION_GUST_PER USA_SEAHGT USA_SEARAD_NE USA_SEARAD_SE USA_SEARAD_SW USA_SEARAD_NW STORM_SPEED STORM_DIR
1940075S12056 1940 15 SI MM NOT_NAMED 1940-03-15 00:00:00 TS -11.6000 56.0000 main 681 660 _________O____ -1 -11.6000 56.0000 TC 25 5 261
1940075S12056 1940 15 SI MM NOT_NAMED 1940-03-15 03:00:00 TS -11.6401 55.7475 main 649 633 _________P____ -1 -11.6401 55.7475 TC 25 5 246
1940075S12056 1940 15 SI MM NOT_NAMED 1940-03-15 06:00:00 TS -11.8000 55.5400 reunion main 623 609 _____O___OO___ -1 -12.3000 55.2000 99 9.90000 -11.7000 55.5000 TC 25 -11.6000 56.0000 1 4 236
1940075S12056 1940 15 SI MM NOT_NAMED 1940-03-15 09:00:00 TS -11.8817 55.3781 main 609 585 _____P___PP___ -1 -12.2744 55.2365 99 -11.7925 55.2575 TC 25 -11.6673 55.7610 1 3 242
1940075S12056 1940 15 SI MM NOT_NAMED 1940-03-15 12:00:00 TS -11.9578 55.2344 main 585 575 _____P___OP___ -1 -12.2549 55.2636 99 -11.9000 55.0000 TC 25 -11.7376 55.5176 1 3 245
1940075S12056 1940 15 SI MM NOT_NAMED 1940-03-15 15:00:00 TS -12.0180 55.0816 main 575 551 _____P___PP___ -1 -12.2474 55.2719 99 -11.9925 54.7075 TC 25 -11.8141 55.2654 1 4 249
1940075S12056 1940 15 SI MM NOT_NAMED 1940-03-15 18:00:00 TS -12.0860 54.8840 main 551 527 _____P___OO___ -1 -12.2579 55.2519 99 -12.1000 54.4000 TC 25 -11.9000 55.0000 1 4 249
1940075S12056 1940 15 SI MM NOT_NAMED 1940-03-15 21:00:00 TS -12.1752 54.6733 main 527 503 _____P___PP___ -1 -12.2924 55.1942 99 -12.2349 54.1074 TC 25 -11.9984 54.7183 1 5 245
1940075S12056 1940 15 SI MM NOT_NAMED 1940-03-16 00:00:00 TS -12.2898 54.4372 main 492 469 _____P___OP___ -1 -12.3570 55.0894 99 -12.4000 53.8000 TC 25 -12.1124 54.4223 1 6 243
1940075S12056 1940 15 SI MM NOT_NAMED 1940-03-16 03:00:00 TS -12.4318 54.1643 main 469 432 _____P___PP___ -1 -12.4575 54.9278 99 -12.5925 53.4500 TC 25 -12.2452 54.1151 1 6 241
1940075S12056 1940 15 SI MM NOT_NAMED 1940-03-16 06:00:00 TS -12.6000 53.8667 reunion main 432 395 _____O___OO___ -1 -12.6000 54.7000 99 9.90000 -12.8000 53.1000 TC 25 -12.4000 53.8000 1 7 239
1940075S12056 1940 15 SI MM NOT_NAMED 1940-03-16 09:00:00 TS -12.7822 53.5544 main 395 347 _____P___PP___ -1 -12.7878 54.4008 99 -12.9924 52.7924 TC 25 -12.5663 53.4700 1 7 238
1940075S12056 1940 15 SI MM NOT_NAMED 1940-03-16 12:00:00 TS -12.9898 53.2262 main 347 310 _____P___OP___ -1 -13.0144 54.0435 99 -13.2000 52.5000 TC 25 -12.7551 53.1349 1 8 236
1940075S12056 1940 15 SI MM NOT_NAMED 1940-03-16 15:00:00 TS -13.2241 52.8796 main 310 272 _____P___PP___ -1 -13.2710 53.6462 99 -13.4350 52.1850 TC 25 -12.9663 52.8074 1 8 233
1940075S12056 1940 15 SI MM NOT_NAMED 1940-03-16 18:00:00 TS -13.4829 52.5424 main 261 226 _____P___OO___ -1 -13.5488 53.2271 99 -13.7000 51.9000 TC 25 -13.2000 52.5000 1 8 229
1940075S12056 1940 15 SI MM NOT_NAMED 1940-03-16 21:00:00 TS -13.7707 52.2249 main 226 205 _____P___PP___ -1 -13.8392 52.8044 99 -14.0075 51.6700 TC 30 -13.4656 52.2002 1 8 225
1940075S12056 1940 15 SI MM NOT_NAMED 1940-03-17 00:00:00 TS -14.0611 51.9406 main 191 163 _____P___OP___ -1 -14.1334 52.3966 99 -14.3000 51.5000 TC 35 -13.7500 51.9253 1 8 223
1940075S12056 1940 15 SI MM NOT_NAMED 1940-03-17 03:00:00 TS -14.3242 51.6958 main 163 126 _____P___PP___ -1 -14.4231 52.0222 99 -14.5150 51.3774 TC 35 -14.0344 51.6877 1 7 220
1940075S12056 1940 15 SI MM NOT_NAMED 1940-03-17 06:00:00 TS -14.5667 51.5000 reunion main 126 106 _____O___OO___ -1 -14.7000 51.7000 99 9.90000 -14.7000 51.3000 TC 35 -14.3000 51.5000 2 6 216
1940075S12056 1940 15 SI MM NOT_NAMED 1940-03-17 09:00:00 TS -14.7806 51.3508 main 106 78 _____P___PP___ -1 -14.9321 51.4552 99 -14.8925 51.2350 TC 35 -14.5173 51.3622 2 5 211
1940075S12056 1940 15 SI MM NOT_NAMED 1940-03-17 12:00:00 TS -14.9903 51.2422 main 78 75 _____P___OP___ -1 -15.1562 51.2519 99 -15.1000 51.2000 TC 35 -14.7148 51.2747 2 5 202
1940075S12056 1940 15 SI MM NOT_NAMED 1940-03-17 15:00:00 TS -15.2095 51.1691 main 75 64 _____P___PP___ -1 -15.3736 51.0901 99 -15.3500 51.1925 TC 35 -14.9049 51.2248 2 5 195
1940075S12056 1940 15 SI MM NOT_NAMED 1940-03-17 18:00:00 TS -15.4285 51.1232 main 64 64 _____P___OO___ -1 -15.5855 50.9697 99 -15.6000 51.2000 TC 35 -15.1000 51.2000 2 4 192
1940075S12056 1940 15 SI MM NOT_NAMED 1940-03-17 21:00:00 TS -15.6355 51.0818 main 68 68 _____P___PP___ -1 -15.7929 50.8906 99 -15.8000 51.1925 TC 35 -15.3137 51.1622 2 4 187
1940075S12056 1940 15 SI MM NOT_NAMED 1940-03-18 00:00:00 TS -15.8440 51.0667 main 78 78 _____P___OP___ -1 -15.9971 50.8526 99 -16.0000 51.2000 TC 35 -15.5350 51.1476 2 4 183
1940075S12056 1940 15 SI MM NOT_NAMED 1940-03-18 03:00:00 TS -16.0684 51.0808 main 91 91 _____P___PP___ -1 -16.1991 50.8558 99 -16.2425 51.2275 TC 35 -15.7637 51.1592 2 5 171
1940075S12056 1940 15 SI MM NOT_NAMED 1940-03-18 06:00:00 TS -16.3000 51.1333 reunion main 101 101 _____O___OO___ -1 -16.4000 50.9000 99 9.90000 -16.5000 51.3000 TC 35 -16.0000 51.2000 2 5 166
1940075S12056 1940 15 SI MM NOT_NAMED 1940-03-18 09:00:00 TS -16.5473 51.2144 main 120 120 _____P___PP___ -1 -16.6178 50.9492 99 -16.7650 51.4349 TC 35 -16.2590 51.2590 2 5 159
1940075S12056 1940 15 SI MM NOT_NAMED 1940-03-18 12:00:00 TS -16.7858 51.3299 main 147 147 _____P___OP___ -1 -16.8351 51.0422 99 -17.0000 51.6000 TC 35 -16.5224 51.3474 2 5 152
1940075S12056 1940 15 SI MM NOT_NAMED 1940-03-18 15:00:00 TS -16.9964 51.4599 main 178 178 _____P___PP___ -1 -17.0497 51.1750 99 -17.1650 51.7426 TC 35 -16.7746 51.4621 2 5 146
1940075S12056 1940 15 SI MM NOT_NAMED 1940-03-18 18:00:00 TS -17.1864 51.6146 main 196 196 _____P___OO___ -1 -17.2592 51.3439 99 -17.3000 51.9000 TC 35 -17.0000 51.6000 2 5 140
1940075S12056 1940 15 SI MM NOT_NAMED 1940-03-18 21:00:00 TS -17.3633 51.7839 main 222 222 _____P___PP___ -1 -17.4613 51.5448 99 -17.4499 52.0776 TC 35 -17.1786 51.7293 2 5 134
1940075S12056 1940 15 SI MM NOT_NAMED 1940-03-19 00:00:00 TS -17.5278 51.9855 main 246 246 _____P___OP___ -1 -17.6537 51.7738 99 -17.6000 52.3000 TC 35 -17.3297 51.8829 2 5 127
1940075S12056 1940 15 SI MM NOT_NAMED 1940-03-19 03:00:00 TS -17.6833 52.2248 main 274 274 _____P___PP___ -1 -17.8340 52.0268 99 -17.7500 52.5775 TC 35 -17.4660 52.0700 2 6 122
1940075S12056 1940 15 SI MM NOT_NAMED 1940-03-19 06:00:00 TS -17.8333 52.5000 reunion main 307 307 _____O___OO___ -1 -18.0000 52.3000 99 9.90000 -17.9000 52.9000 TC 35 -17.6000 52.3000 2 6 119
1940075S12056 1940 15 SI MM NOT_NAMED 1940-03-19 09:00:00 TS -17.9929 52.8063 main 345 345 _____P___PP___ -1 -18.1472 52.5676 99 -18.0651 53.2574 TC 35 -17.7665 52.5938 2 7 117
1940075S12056 1940 15 SI MM NOT_NAMED 1940-03-19 12:00:00 TS -18.1367 53.1291 main 379 371 _____P___OP___ -1 -18.2798 52.8602 99 -18.2000 53.6000 TC 35 -17.9304 52.9271 2 7 113
1940075S12056 1940 15 SI MM NOT_NAMED 1940-03-19 15:00:00 TS -18.2480 53.4368 main 371 345 _____P___PP___ -1 -18.4001 53.1735 99 -18.2649 53.8651 TC 35 -18.0790 53.2719 2 6 109
1940075S12056 1940 15 SI MM NOT_NAMED 1940-03-19 18:00:00 TS -18.3368 53.7344 main 345 321 _____P___OO___ -1 -18.5105 53.5033 99 -18.3000 54.1000 TC 35 -18.2000 53.6000 2 6 107
1940075S12056 1940 15 SI MM NOT_NAMED 1940-03-19 21:00:00 TS -18.4085 54.0029 main 321 298 _____P___PP___ -1 -18.6133 53.8451 99 -18.3423 54.3201 TC 35 -18.2701 53.8436 2 5 105
1940075S12056 1940 15 SI MM NOT_NAMED 1940-03-20 00:00:00 TS -18.4750 54.2885 main 298 289 _____P___OP___ -1 -18.7108 54.1947 99 -18.4000 54.6000 TC 35 -18.3142 54.0707 2 6 103
1940075S12056 1940 15 SI MM NOT_NAMED 1940-03-20 03:00:00 TS -18.5498 54.6292 main 289 270 _____P___PP___ -1 -18.8056 54.5478 99 -18.4926 55.0275 TC 35 -18.3512 54.3124 2 7 103
1940075S12056 1940 15 SI MM NOT_NAMED 1940-03-20 06:00:00 TS -18.6333 55.0000 reunion main 270 257 _____O___OO___ -1 -18.9000 54.9000 99 9.90000 -18.6000 55.5000 TC 35 -18.4000 54.6000 2 7 105
1940075S12056 1940 15 SI MM NOT_NAMED 1940-03-20 09:00:00 TS -18.7326 55.3739 main 257 238 _____P___PP___ -1 -18.9963 55.2202 99 -18.7074 55.9150 TC 35 -18.4941 54.9866 2 7 105
1940075S12056 1940 15 SI MM NOT_NAMED 1940-03-20 12:00:00 TS -18.8300 55.7535 main 230 198 _____P___OP___ -1 -19.0896 55.5409 99 -18.8000 56.3000 TC 35 -18.6005 55.4196 2 7 104
1940075S12056 1940 15 SI MM NOT_NAMED 1940-03-20 15:00:00 TS -18.9153 56.1299 main 198 161 _____P___PP___ -1 -19.1820 55.8641 99 -18.8574 56.6576 TC 30 -18.7066 55.8679 2 7 103
1940075S12056 1940 15 SI MM NOT_NAMED 1940-03-20 18:00:00 TS -18.9918 56.4974 main 161 143 _____P___OO___ -1 -19.2754 56.1923 99 -18.9000 57.0000 TC 25 -18.8000 56.3000 2 7 101
1940075S12056 1940 15 SI MM NOT_NAMED 1940-03-20 21:00:00 TS -19.0486 56.8292 main 143 116 _____P___PP___ -1 -19.3720 56.5276 99 -18.9347 57.3202 TC 25 -18.8391 56.6399 2 7 101
1940075S12056 1940 15 SI MM NOT_NAMED 1940-03-21 00:00:00 TS -19.1141 57.1787 main 116 100 _____P___OP___ -1 -19.4737 56.8724 99 -19.0000 57.7000 TC 25 -18.8687 56.9638 2 7 102
1940075S12056 1940 15 SI MM NOT_NAMED 1940-03-21 03:00:00 TS -19.2055 57.5850 main 100 90 _____P___PP___ -1 -19.5823 57.2291 99 -19.1201 58.2201 TC 25 -18.9140 57.3057 2 8 105
1940075S12056 1940 15 SI MM NOT_NAMED 1940-03-21 06:00:00 TS -19.3333 58.0333 reunion main 94 88 _____O___OO___ -1 -19.7000 57.6000 99 9.90000 -19.3000 58.8000 TC 25 -19.0000 57.7000 1 10 109
1940075S12056 1940 15 SI MM NOT_NAMED 1940-03-21 09:00:00 TS -19.5126 58.5428 main 107 107 _____P___PP___ -1 -19.8456 58.0201 99 -19.5426 59.3798 TC 25 -19.1497 58.2284 1 10 112
1940075S12056 1940 15 SI MM NOT_NAMED 1940-03-21 12:00:00 TS -19.7142 59.0551 main 151 151 _____P___OP___ -1 -20.0013 58.4586 99 -19.8000 59.9000 TC 25 -19.3414 58.8067 1 10 113
1940075S12056 1940 15 SI MM NOT_NAMED 1940-03-21 15:00:00 TS -19.9057 59.5255 main 183 183 _____P___PP___ -1 -20.1626 58.9071 99 -19.9923 60.2878 TC 25 -19.5622 59.3817 1 9 116
1940075S12056 1940 15 SI MM NOT_NAMED 1940-03-21 18:00:00 TS -20.1000 59.8935 main 220 220 _____P___OO___ -1 -20.3250 59.3572 99 -20.2000 60.6000 TC 25 -19.8000 59.9000 1 8 121
1940075S12056 1940 15 SI MM NOT_NAMED 1940-03-21 21:00:00 TS -20.3072 60.2286 main 250 250 _____P___PP___ -1 -20.4842 59.8002 99 -20.4777 60.8996 TC 25 -20.0449 60.3214 1 7 127
1940075S12056 1940 15 SI MM NOT_NAMED 1940-03-22 00:00:00 TS -20.5282 60.5112 main 282 282 _____P___OP___ -1 -20.6359 60.2275 99 -20.8000 61.2000 TC 25 -20.2941 60.6600 1 6 130
1940075S12056 1940 15 SI MM NOT_NAMED 1940-03-22 03:00:00 NR -20.6994 60.7348 main 305 305 _____P____P___ -1 -20.7759 60.6303 99 TC -20.5463 60.9436 1 6 125
1940075S12056 1940 15 SI MM NOT_NAMED 1940-03-22 06:00:00 NR -20.8800 61.0400 reunion main 339 339 _____O____O___ -1 -20.9000 61.0000 99 9.90000 -20.8000 61.2000 1 6 119
1940075S12056 1940 15 SI MM NOT_NAMED 1940-03-22 09:00:00 NR -21.0054 61.3299 main 372 372 _____P________ -1 -21.0054 61.3299 99 1 6 111
1940075S12056 1940 15 SI MM NOT_NAMED 1940-03-22 12:00:00 NR -21.0935 61.6230 main 405 405 _____P________ -1 -21.0935 61.6230 99 1 5 107
1940075S12056 1940 15 SI MM NOT_NAMED 1940-03-22 15:00:00 NR -21.1669 61.8843 main 437 437 _____P________ -1 -21.1669 61.8843 99 1 5 106
1940075S12056 1940 15 SI MM NOT_NAMED 1940-03-22 18:00:00 NR -21.2282 62.1192 main 458 458 _____P________ -1 -21.2282 62.1192 99 4 105
1940075S12056 1940 15 SI MM NOT_NAMED 1940-03-22 21:00:00 NR -21.2797 62.3329 main 480 480 _____P________ -1 -21.2797 62.3329 99 4 104
1940075S12056 1940 15 SI MM NOT_NAMED 1940-03-23 00:00:00 NR -21.3239 62.5308 main 501 501 _____P________ -1 -21.3239 62.5308 99 4 103
1940075S12056 1940 15 SI MM NOT_NAMED 1940-03-23 03:00:00 NR -21.3632 62.7180 main 523 523 _____P________ -1 -21.3632 62.7180 99 4 102
1940075S12056 1940 15 SI MM NOT_NAMED 1940-03-23 06:00:00 NR -21.4000 62.9000 reunion main 543 _____O________ -1 -21.4000 62.9000 99 9.90000 3 102

About IBTrACS Database

This database is a web-friendly format of International Best Track Archive for Climate Stewardship (IBTrACS), a global best track data archive curated by NOAA dating back to 1842.

Updated: 2021-10-21